Time;durP1;ratioP1;P1;durP2;ratioP2;P2;SDS_P1;SDS_P2;PMS_P1;PMS_P2;Temp;Humidity;BMP_temperature;BMP_pressure;BME280_temperature;BME280_humidity;BME280_pressure;Samples;Min_cycle;Max_cycle;Signal;HPM_P1;HPM_P2
2021/08/27 00:02:06;;;;;;;5.85;0.57;;;13.00;99.90;;;;;;5063432;28;20042;-76
2021/08/27 00:04:32;;;;;;;3.80;0.55;;;13.00;99.90;;;;;;5064264;28;20398;-77
2021/08/27 00:06:59;;;;;;;4.50;0.40;;;13.00;99.90;;;;;;5062571;28;20039;-76
2021/08/27 00:09:26;;;;;;;2.15;0.30;;;13.00;99.90;;;;;;5043426;28;20056;-75
2021/08/27 00:11:53;;;;;;;3.08;0.40;;;13.00;99.90;;;;;;5062841;28;20040;-76
2021/08/27 00:14:20;;;;;;;3.10;0.30;;;13.10;99.90;;;;;;5047007;28;20047;-75
2021/08/27 00:16:46;;;;;;;2.58;0.60;;;13.10;99.90;;;;;;5080782;28;20032;-75
2021/08/27 00:19:13;;;;;;;3.97;0.30;;;13.10;99.90;;;;;;5062604;28;20395;-76
2021/08/27 00:21:39;;;;;;;2.85;0.30;;;13.10;99.90;;;;;;5064233;28;20032;-76
2021/08/27 00:24:07;;;;;;;4.63;0.30;;;13.10;99.90;;;;;;5081666;28;20043;-76
2021/08/27 00:26:34;;;;;;;3.22;0.30;;;13.10;99.90;;;;;;5080666;28;20580;-75
2021/08/27 00:29:05;;;;;;;2.85;0.40;;;13.10;99.90;;;;;;5063246;28;20028;-76
2021/08/27 00:31:32;;;;;;;3.25;0.63;;;13.00;99.90;;;;;;5083081;28;20040;-75
2021/08/27 00:33:59;;;;;;;1.90;0.30;;;13.00;99.90;;;;;;5047833;28;20028;-76
2021/08/27 00:36:25;;;;;;;1.67;0.20;;;12.90;99.90;;;;;;5079676;28;20032;-76
2021/08/27 00:38:52;;;;;;;4.07;0.40;;;12.90;99.90;;;;;;5062975;28;20036;-76
2021/08/27 00:41:19;;;;;;;5.55;0.40;;;12.90;99.90;;;;;;5044999;28;20597;-77
2021/08/27 00:43:46;;;;;;;4.07;0.60;;;12.90;99.90;;;;;;5012365;28;20376;-77
2021/08/27 00:46:13;;;;;;;2.25;0.30;;;12.80;99.90;;;;;;5063271;28;20036;-77
2021/08/27 00:48:40;;;;;;;2.50;0.30;;;12.80;99.90;;;;;;5030657;28;20037;-77
2021/08/27 00:51:06;;;;;;;1.67;0.20;;;12.80;99.90;;;;;;5046243;28;20055;-77
2021/08/27 00:53:33;;;;;;;1.85;0.30;;;12.80;99.90;;;;;;5022887;28;20498;-77
2021/08/27 00:56:01;;;;;;;3.38;0.60;;;12.80;99.90;;;;;;5064233;28;20033;-79
2021/08/27 00:58:29;;;;;;;5.00;0.43;;;12.80;99.90;;;;;;5045054;28;20044;-79
2021/08/27 01:00:55;;;;;;;3.72;0.38;;;12.80;99.90;;;;;;5069975;28;20036;-79
2021/08/27 01:03:22;;;;;;;3.55;0.40;;;12.80;99.90;;;;;;5051309;28;20040;-77
2021/08/27 01:06:33;;;;;;;2.85;0.20;;;12.80;99.90;;;;;;5054307;28;20054;-77
2021/08/27 01:09:04;;;;;;;6.38;0.32;;;12.70;99.90;;;;;;5032779;28;20360;-76
2021/08/27 01:11:52;;;;;;;5.15;0.40;;;12.80;99.90;;;;;;5068585;28;20037;-77
2021/08/27 01:14:40;;;;;;;1.40;0.20;;;12.70;99.90;;;;;;5069455;28;20971;-77
2021/08/27 01:17:12;;;;;;;5.03;0.38;;;12.70;99.90;;;;;;5052002;28;20048;-77
2021/08/27 01:20:00;;;;;;;3.13;0.45;;;12.70;99.90;;;;;;5032330;28;20043;-77
2021/08/27 01:22:56;;;;;;;2.40;0.30;;;12.70;99.90;;;;;;5066634;28;20071;-77
2021/08/27 01:25:24;;;;;;;3.50;0.32;;;12.70;99.90;;;;;;5054596;28;20048;-77
2021/08/27 01:27:54;;;;;;;3.03;0.50;;;12.70;99.90;;;;;;5067994;28;20477;-77
2021/08/27 01:30:21;;;;;;;2.17;0.20;;;12.70;99.90;;;;;;5074237;28;20029;-77
2021/08/27 01:32:54;;;;;;;2.22;0.47;;;12.70;99.90;;;;;;5036227;28;20040;-77
2021/08/27 01:35:21;;;;;;;;;;;12.60;99.90;;;;;;5049836;28;20043;-77
2021/08/27 01:37:50;;;;;;;3.55;0.40;;;12.60;99.90;;;;;;5049216;28;19983;-78
2021/08/27 01:40:20;;;;;;;1.92;0.30;;;12.60;99.90;;;;;;5079190;28;20055;-77
2021/08/27 01:42:47;;;;;;;4.55;0.30;;;12.70;99.90;;;;;;5085076;28;20510;-77
2021/08/27 01:45:16;;;;;;;3.17;0.30;;;12.60;99.90;;;;;;5066394;28;20047;-77
2021/08/27 01:47:43;;;;;;;6.10;0.35;;;12.70;99.90;;;;;;5083152;28;20032;-79
2021/08/27 01:50:12;;;;;;;1.95;0.40;;;12.70;99.90;;;;;;5069046;28;20047;-79
2021/08/27 01:52:39;;;;;;;5.05;0.50;;;12.70;99.90;;;;;;5053570;28;20042;-79
2021/08/27 01:55:08;;;;;;;2.08;0.40;;;12.70;99.90;;;;;;5086945;28;20356;-77
2021/08/27 01:57:36;;;;;;;4.85;0.40;;;12.70;99.90;;;;;;5067217;28;20032;-77
2021/08/27 02:00:04;;;;;;;1.67;0.20;;;12.60;99.90;;;;;;5050060;28;20044;-77
2021/08/27 02:02:32;;;;;;;4.13;0.30;;;12.60;99.90;;;;;;5067844;28;20032;-77
2021/08/27 02:05:01;;;;;;;3.97;0.30;;;12.60;99.90;;;;;;5085853;28;20044;-77
2021/08/27 02:07:28;;;;;;;6.43;0.50;;;12.60;99.90;;;;;;5083232;28;20547;-78
2021/08/27 02:09:56;;;;;;;5.38;0.40;;;12.60;99.90;;;;;;5049348;28;20043;-78
2021/08/27 02:12:25;;;;;;;5.28;0.50;;;12.60;99.90;;;;;;5067368;28;20391;-76
2021/08/27 02:14:55;;;;;;;5.25;0.90;;;12.60;99.90;;;;;;5068412;28;20363;-78
2021/08/27 02:17:25;;;;;;;8.98;4.00;;;12.60;99.90;;;;;;5067191;28;20035;-77
2021/08/27 02:19:53;;;;;;;9.15;2.63;;;12.60;99.90;;;;;;5085827;28;20359;-78
2021/08/27 02:22:22;;;;;;;7.97;3.13;;;12.60;99.90;;;;;;5069876;28;20024;-78
2021/08/27 02:24:56;;;;;;;10.70;3.03;;;12.60;99.90;;;;;;5069829;28;20036;-79
2021/08/27 02:27:23;;;;;;;6.93;1.25;;;12.70;99.90;;;;;;5066702;28;20028;-77
2021/08/27 02:29:54;;;;;;;5.13;0.75;;;12.70;99.90;;;;;;5068407;28;20040;-78
2021/08/27 02:32:21;;;;;;;5.18;0.93;;;12.80;99.90;;;;;;5051780;28;20048;-77
2021/08/27 02:34:49;;;;;;;3.65;0.50;;;12.90;99.90;;;;;;5052061;28;20051;-78
2021/08/27 02:37:19;;;;;;;2.65;0.40;;;12.90;99.90;;;;;;5087245;28;20036;-77
2021/08/27 02:39:46;;;;;;;4.45;0.38;;;13.00;99.90;;;;;;5068428;28;20056;-77
2021/08/27 02:42:15;;;;;;;4.18;0.40;;;13.00;99.90;;;;;;5051571;28;20048;-77
2021/08/27 02:44:41;;;;;;;3.13;0.40;;;13.00;99.90;;;;;;5087366;28;20047;-77
2021/08/27 02:47:07;;;;;;;2.80;0.45;;;13.00;99.90;;;;;;5068218;28;21369;-77
2021/08/27 02:49:35;;;;;;;2.03;0.30;;;12.90;99.90;;;;;;5065893;28;20391;-76
2021/08/27 02:52:28;;;;;;;3.00;0.40;;;12.90;99.90;;;;;;5066454;28;20043;-75
2021/08/27 02:55:03;;;;;;;6.10;0.40;;;12.80;99.90;;;;;;5084431;28;20080;-76
2021/08/27 02:57:39;;;;;;;4.75;0.68;;;12.70;99.90;;;;;;5064488;28;20522;-76
2021/08/27 03:00:07;;;;;;;4.07;0.40;;;12.70;99.90;;;;;;5082628;28;20386;-75
2021/08/27 03:02:34;;;;;;;3.00;0.40;;;12.60;99.90;;;;;;5049273;28;20048;-75
2021/08/27 03:05:04;;;;;;;5.07;0.50;;;12.60;99.90;;;;;;5084083;28;20043;-75
2021/08/27 03:07:31;;;;;;;3.83;0.40;;;12.60;99.90;;;;;;5045792;28;20039;-76
2021/08/27 03:10:09;;;;;;;3.33;0.30;;;12.70;99.90;;;;;;5059441;28;20043;-75
2021/08/27 03:12:51;;;;;;;6.55;0.73;;;12.80;99.90;;;;;;5082334;28;20032;-75
2021/08/27 03:15:27;;;;;;;2.60;0.35;;;12.90;99.90;;;;;;5082570;28;20032;-75
2021/08/27 03:18:00;;;;;;;3.15;0.40;;;12.90;99.90;;;;;;5080787;28;20039;-75
2021/08/27 03:20:50;;;;;;;2.85;0.77;;;13.00;99.90;;;;;;5049256;28;20036;-75
2021/08/27 03:23:19;;;;;;;3.05;0.50;;;13.00;99.90;;;;;;5080984;28;20400;-76
2021/08/27 03:25:46;;;;;;;5.00;0.30;;;13.10;99.90;;;;;;5083651;28;20035;-75
2021/08/27 03:28:19;;;;;;;2.97;0.30;;;13.10;99.90;;;;;;5062327;28;20036;-75
2021/08/27 03:30:51;;;;;;;3.42;0.45;;;13.10;99.90;;;;;;5081804;28;20024;-75
2021/08/27 03:33:19;;;;;;;1.92;0.30;;;13.10;99.90;;;;;;5082016;28;20036;-75
2021/08/27 03:35:54;;;;;;;3.25;0.30;;;13.10;99.90;;;;;;5052575;28;20526;-75
2021/08/27 03:38:26;;;;;;;3.63;0.40;;;13.20;99.90;;;;;;5081302;28;20588;-75
2021/08/27 03:40:53;;;;;;;;;;;13.10;99.90;;;;;;5048644;28;20379;-75
2021/08/27 03:43:21;;;;;;;2.88;0.40;;;13.20;99.90;;;;;;5082449;28;20283;-75
2021/08/27 03:45:49;;;;;;;2.85;0.40;;;13.20;99.90;;;;;;5083316;28;20051;-75
2021/08/27 03:48:21;;;;;;;3.78;0.35;;;13.20;99.90;;;;;;5046601;28;20028;-75
2021/08/27 03:50:52;;;;;;;2.90;0.40;;;13.20;99.90;;;;;;5062888;28;20028;-76
2021/08/27 03:53:20;;;;;;;2.30;0.30;;;13.30;99.90;;;;;;5063137;28;20032;-76
2021/08/27 03:55:50;;;;;;;2.40;0.35;;;13.20;99.90;;;;;;5065661;28;20494;-77
2021/08/27 03:58:22;;;;;;;4.20;0.35;;;13.30;99.90;;;;;;5084007;28;20028;-77
2021/08/27 04:00:50;;;;;;;5.10;0.65;;;13.30;99.90;;;;;;5067192;28;20040;-77
2021/08/27 04:03:21;;;;;;;2.85;0.30;;;13.30;99.90;;;;;;5047298;28;20036;-76
2021/08/27 04:06:06;;;;;;;6.20;0.40;;;13.30;99.90;;;;;;5067539;28;20490;-78
2021/08/27 04:08:41;;;;;;;4.10;0.30;;;13.30;99.90;;;;;;5065652;28;20047;-78
2021/08/27 04:11:09;;;;;;;5.05;0.50;;;13.20;99.90;;;;;;5079513;28;20043;-78
2021/08/27 04:13:37;;;;;;;5.47;0.43;;;13.10;99.90;;;;;;5065757;28;20035;-76
2021/08/27 04:16:04;;;;;;;3.20;0.50;;;13.10;99.90;;;;;;5047432;28;20431;-76
2021/08/27 04:18:31;;;;;;;3.58;0.30;;;13.00;99.90;;;;;;5062297;28;20052;-77
2021/08/27 04:20:59;;;;;;;2.53;0.32;;;13.00;99.90;;;;;;5083278;28;20486;-77
2021/08/27 04:23:26;;;;;;;2.00;0.30;;;12.90;99.90;;;;;;5083151;28;20372;-76
2021/08/27 04:25:52;;;;;;;3.28;0.30;;;12.90;99.90;;;;;;5061755;28;20122;-77
2021/08/27 04:28:19;;;;;;;3.83;0.90;;;12.90;99.90;;;;;;5063968;28;20062;-76
2021/08/27 04:30:46;;;;;;;2.03;0.30;;;12.90;99.90;;;;;;5084158;28;20047;-78
2021/08/27 04:33:12;;;;;;;3.50;0.65;;;12.90;99.90;;;;;;5083614;28;20044;-78
2021/08/27 04:35:39;;;;;;;1.67;0.30;;;12.80;99.90;;;;;;5067522;28;20036;-78
2021/08/27 04:38:05;;;;;;;4.57;0.30;;;12.80;99.90;;;;;;5083245;28;20035;-78
2021/08/27 04:40:32;;;;;;;2.75;0.40;;;12.80;99.90;;;;;;5069033;28;20054;-77
2021/08/27 04:42:59;;;;;;;3.22;0.40;;;12.70;99.90;;;;;;5057815;28;20039;-78
2021/08/27 04:45:25;;;;;;;4.43;0.30;;;12.70;99.90;;;;;;5023170;28;20037;-78
2021/08/27 04:47:52;;;;;;;2.28;0.38;;;12.70;99.90;;;;;;5028091;28;20587;-78
2021/08/27 04:50:18;;;;;;;1.45;0.30;;;12.70;99.90;;;;;;5013731;28;20052;-80
2021/08/27 04:52:44;;;;;;;3.80;0.40;;;12.70;99.90;;;;;;5013246;28;20515;-80
2021/08/27 04:55:11;;;;;;;3.50;0.40;;;12.70;99.90;;;;;;5048682;28;20032;-79
2021/08/27 04:57:39;;;;;;;4.15;0.30;;;12.80;99.90;;;;;;5040910;28;20036;-79
2021/08/27 05:00:08;;;;;;;3.08;0.60;;;12.80;99.90;;;;;;5012703;28;20052;-79
2021/08/27 05:02:36;;;;;;;5.30;0.30;;;12.80;99.90;;;;;;5021171;28;20056;-80
2021/08/27 05:05:04;;;;;;;3.47;0.40;;;12.80;99.90;;;;;;5064290;28;20052;-80
2021/08/27 05:07:30;;;;;;;3.95;1.00;;;12.90;99.90;;;;;;5051876;28;20040;-79
2021/08/27 05:09:57;;;;;;;6.82;3.20;;;12.90;99.90;;;;;;5069013;28;20345;-80
2021/08/27 05:12:23;;;;;;;7.35;2.63;;;13.00;99.90;;;;;;5077793;28;20032;-80
2021/08/27 05:14:50;;;;;;;3.67;1.20;;;13.00;99.90;;;;;;5046309;28;20040;-80
2021/08/27 05:17:16;;;;;;;2.17;0.60;;;13.10;99.90;;;;;;5058287;28;20033;-77
2021/08/27 05:19:43;;;;;;;5.95;3.35;;;13.10;99.90;;;;;;5040500;28;20048;-77
2021/08/27 05:22:09;;;;;;;3.45;1.70;;;13.20;99.90;;;;;;5060081;28;20029;-79
2021/08/27 05:24:36;;;;;;;4.32;1.38;;;13.30;99.90;;;;;;5064708;28;20036;-77
2021/08/27 05:27:02;;;;;;;6.20;2.15;;;13.40;99.90;;;;;;5046157;28;20053;-78
2021/08/27 05:29:29;;;;;;;3.22;0.80;;;13.50;99.90;;;;;;5065689;28;20055;-80
2021/08/27 05:31:55;;;;;;;3.95;0.60;;;13.50;99.90;;;;;;5066204;28;20028;-80
2021/08/27 05:34:21;;;;;;;2.15;0.50;;;13.50;99.90;;;;;;5065391;28;20037;-80
2021/08/27 05:36:48;;;;;;;2.58;0.40;;;13.50;99.90;;;;;;5047334;28;20040;-80
2021/08/27 05:39:14;;;;;;;4.30;0.50;;;13.50;99.90;;;;;;5027387;28;20074;-75
2021/08/27 05:41:41;;;;;;;2.38;0.50;;;13.50;99.90;;;;;;5044792;28;20049;-75
2021/08/27 05:44:07;;;;;;;3.10;0.50;;;13.60;99.90;;;;;;5031784;28;20051;-75
2021/08/27 05:46:34;;;;;;;5.25;0.82;;;13.60;99.90;;;;;;5033217;28;20029;-75
2021/08/27 05:49:00;;;;;;;2.33;0.35;;;13.70;99.90;;;;;;5033032;28;20041;-75
2021/08/27 05:51:27;;;;;;;3.63;0.50;;;13.90;99.90;;;;;;5066319;28;20037;-75
2021/08/27 05:53:54;;;;;;;3.85;0.50;;;14.00;99.90;;;;;;5013263;28;20041;-77
2021/08/27 05:56:21;;;;;;;3.00;0.40;;;14.10;99.90;;;;;;5019618;28;20044;-78
2021/08/27 05:58:47;;;;;;;1.83;0.30;;;14.30;99.90;;;;;;5035926;28;20047;-76
2021/08/27 06:01:14;;;;;;;3.10;0.43;;;14.30;99.90;;;;;;5032383;28;20040;-76
2021/08/27 06:03:41;;;;;;;3.42;0.73;;;14.40;99.90;;;;;;5057855;28;20043;-80
2021/08/27 06:06:07;;;;;;;2.97;0.52;;;14.50;99.90;;;;;;5037135;28;20427;-80
2021/08/27 06:08:35;;;;;;;2.70;0.40;;;14.50;99.90;;;;;;5053889;28;20055;-79
2021/08/27 06:11:02;;;;;;;6.78;0.57;;;14.60;99.90;;;;;;5042456;28;20506;-81
2021/08/27 06:13:29;;;;;;;2.42;0.50;;;14.70;99.90;;;;;;5041582;28;20139;-81
2021/08/27 06:15:56;;;;;;;3.70;0.40;;;14.70;99.90;;;;;;5045140;28;20067;-81
2021/08/27 06:18:23;;;;;;;3.53;1.55;;;14.70;99.90;;;;;;5040603;28;20044;-80
2021/08/27 06:20:52;;;;;;;2.88;0.80;;;14.80;99.90;;;;;;5008510;28;21179;-81
2021/08/27 06:23:19;;;;;;;4.25;0.65;;;14.80;99.90;;;;;;5028162;28;20048;-80
2021/08/27 06:25:46;;;;;;;3.80;0.95;;;14.90;99.90;;;;;;5057254;28;20041;-82
2021/08/27 06:28:12;;;;;;;5.25;0.50;;;15.00;99.90;;;;;;5040418;28;20047;-82
2021/08/27 06:30:39;;;;;;;5.53;0.75;;;15.10;99.90;;;;;;5076522;28;20036;-81
2021/08/27 06:33:08;;;;;;;4.38;0.55;;;15.10;99.90;;;;;;5022008;28;20037;-81
2021/08/27 06:35:35;;;;;;;2.60;0.50;;;15.20;99.90;;;;;;5048897;28;20044;-81
2021/08/27 06:40:48;;;;;;;3.17;0.47;;;15.40;99.90;;;;;;5036636;28;20610;-81
2021/08/27 06:43:18;;;;;;;3.45;0.30;;;15.40;99.90;;;;;;5035617;28;20206;-81
2021/08/27 06:45:44;;;;;;;4.43;0.40;;;15.50;99.90;;;;;;5007522;28;20076;-81
2021/08/27 06:48:11;;;;;;;2.03;0.43;;;15.70;99.90;;;;;;5030023;28;21406;-82
2021/08/27 06:50:40;;;;;;;1.83;0.40;;;15.80;99.90;;;;;;5032543;28;20040;-82
2021/08/27 06:53:07;;;;;;;2.92;0.40;;;16.00;99.90;;;;;;5047800;28;20036;-82
2021/08/27 06:55:35;;;;;;;4.53;0.40;;;16.00;99.90;;;;;;5066672;28;20056;-82
2021/08/27 06:58:02;;;;;;;1.45;0.22;;;16.00;99.90;;;;;;5031154;28;20059;-81
2021/08/27 07:00:30;;;;;;;3.08;0.30;;;16.10;99.90;;;;;;5048399;28;20059;-81
2021/08/27 07:02:56;;;;;;;1.55;0.30;;;16.10;99.90;;;;;;5060088;28;20036;-81
2021/08/27 07:05:23;;;;;;;2.70;0.40;;;16.20;99.90;;;;;;5017222;28;20071;-81
2021/08/27 07:07:50;;;;;;;4.85;0.55;;;16.30;99.90;;;;;;5030642;28;20025;-81
2021/08/27 07:10:19;;;;;;;4.20;0.50;;;16.30;99.90;;;;;;5016208;28;20598;-81
2021/08/27 07:12:47;;;;;;;2.97;0.60;;;16.40;99.90;;;;;;5015895;28;20037;-81
2021/08/27 07:15:13;;;;;;;3.28;0.35;;;16.40;99.90;;;;;;5049028;28;20037;-81
2021/08/27 07:17:40;;;;;;;4.47;0.57;;;16.50;99.90;;;;;;5051883;28;20048;-81
2021/08/27 07:20:07;;;;;;;3.80;0.30;;;16.60;99.90;;;;;;5031676;28;21374;-81
2021/08/27 07:22:35;;;;;;;5.13;0.75;;;16.70;99.90;;;;;;5034526;28;20064;-81
2021/08/27 07:25:03;;;;;;;4.85;0.63;;;16.80;99.90;;;;;;5051108;28;20032;-81
2021/08/27 07:27:29;;;;;;;3.40;0.57;;;17.10;99.90;;;;;;5048458;28;20037;-81
2021/08/27 07:29:56;;;;;;;2.35;0.32;;;17.50;99.90;;;;;;5014620;28;20044;-81
2021/08/27 07:32:22;;;;;;;2.90;0.40;;;17.80;99.90;;;;;;5032109;28;20045;-80
2021/08/27 07:34:49;;;;;;;5.90;0.63;;;18.10;99.90;;;;;;5016517;28;20040;-80
2021/08/27 07:37:15;;;;;;;1.80;0.30;;;18.30;99.90;;;;;;5031444;28;20055;-80
2021/08/27 07:39:43;;;;;;;2.95;0.50;;;18.50;99.90;;;;;;5028169;28;20048;-80
2021/08/27 07:42:10;;;;;;;3.17;0.30;;;18.50;99.90;;;;;;5045203;28;20040;-80
2021/08/27 07:44:37;;;;;;;2.70;0.40;;;18.50;99.90;;;;;;5086333;28;20043;-80
2021/08/27 07:47:04;;;;;;;3.90;0.40;;;18.50;99.90;;;;;;5051304;28;20036;-80
2021/08/27 07:49:30;;;;;;;4.70;0.50;;;18.50;99.90;;;;;;5051563;28;20048;-80
2021/08/27 07:51:57;;;;;;;6.00;0.52;;;18.50;99.90;;;;;;5069995;28;20032;-79
2021/08/27 07:54:25;;;;;;;3.67;0.60;;;18.50;99.90;;;;;;5049291;28;20052;-81
2021/08/27 07:56:52;;;;;;;5.57;0.63;;;18.50;99.90;;;;;;5083839;28;20139;-80
2021/08/27 07:59:18;;;;;;;2.35;0.40;;;18.50;99.90;;;;;;5085490;28;20521;-80
2021/08/27 08:01:46;;;;;;;6.13;0.50;;;18.40;99.90;;;;;;5086672;28;20043;-80
2021/08/27 08:04:13;;;;;;;6.15;0.60;;;18.40;99.90;;;;;;5068633;28;20040;-80
2021/08/27 08:06:39;;;;;;;2.05;0.47;;;18.40;99.90;;;;;;5050218;28;20040;-80
2021/08/27 08:09:06;;;;;;;2.72;0.40;;;18.40;99.90;;;;;;5066820;28;20039;-80
2021/08/27 08:11:34;;;;;;;2.83;0.60;;;18.40;99.90;;;;;;5052089;28;20040;-80
2021/08/27 08:14:01;;;;;;;2.80;0.50;;;18.40;99.90;;;;;;5087553;28;20024;-80
2021/08/27 08:16:27;;;;;;;3.13;0.50;;;18.30;99.90;;;;;;5068492;28;20032;-80
2021/08/27 08:18:54;;;;;;;3.85;0.40;;;18.30;99.90;;;;;;5067671;28;20032;-79
2021/08/27 08:21:23;;;;;;;2.35;0.60;;;18.40;99.90;;;;;;5035794;28;20055;-80
2021/08/27 08:23:51;;;;;;;3.95;0.60;;;18.60;99.90;;;;;;5052582;28;20039;-80
2021/08/27 08:26:19;;;;;;;2.80;0.45;;;18.80;99.90;;;;;;5033269;28;20044;-80
2021/08/27 08:28:47;;;;;;;3.17;0.50;;;18.90;99.90;;;;;;5066451;28;20024;-80
2021/08/27 08:31:20;;;;;;;5.47;0.73;;;18.80;99.90;;;;;;5050705;28;20387;-81
2021/08/27 08:33:49;;;;;;;2.83;0.68;;;18.80;99.90;;;;;;5052484;28;20777;-81
2021/08/27 08:36:16;;;;;;;2.78;0.50;;;18.90;99.90;;;;;;5033286;28;20058;-80
2021/08/27 08:38:43;;;;;;;3.78;0.73;;;19.00;99.90;;;;;;5084042;28;20040;-80
2021/08/27 08:41:10;;;;;;;3.45;0.52;;;19.20;99.90;;;;;;5030000;28;20867;-80
2021/08/27 08:43:37;;;;;;;4.72;0.80;;;19.40;99.90;;;;;;5030425;28;20055;-81
2021/08/27 08:46:04;;;;;;;3.83;0.60;;;19.50;99.90;;;;;;5013714;28;20041;-84
2021/08/27 08:48:32;;;;;;;2.88;0.85;;;19.50;99.90;;;;;;5045042;28;20029;-86
2021/08/27 08:51:02;;;;;;;2.15;0.52;;;19.50;99.90;;;;;;5030080;28;20049;-85
2021/08/27 08:53:31;;;;;;;2.97;0.60;;;19.60;99.90;;;;;;5030142;28;20052;-85
2021/08/27 08:55:58;;;;;;;3.33;0.60;;;19.80;99.90;;;;;;5013500;28;20044;-87
2021/08/27 08:58:31;;;;;;;4.28;0.60;;;20.00;99.90;;;;;;5009591;28;20048;-86
2021/08/27 09:00:58;;;;;;;3.00;0.50;;;20.10;99.90;;;;;;5014986;28;20398;-81
2021/08/27 09:03:25;;;;;;;5.28;0.80;;;20.20;99.90;;;;;;5044068;28;20045;-80
2021/08/27 09:05:52;;;;;;;4.55;0.70;;;20.30;99.90;;;;;;5044783;28;20056;-80
2021/08/27 09:08:38;;;;;;;4.03;0.70;;;20.40;99.90;;;;;;5029593;28;20035;-80
2021/08/27 09:11:21;;;;;;;2.40;0.60;;;20.50;99.90;;;;;;5028324;28;20047;-79
2021/08/27 09:13:50;;;;;;;3.35;0.90;;;20.40;99.90;;;;;;5039937;28;20029;-79
2021/08/27 09:16:17;;;;;;;5.35;0.70;;;20.20;99.90;;;;;;5007474;28;20048;-80
2021/08/27 09:18:48;;;;;;;3.22;0.90;;;20.00;99.90;;;;;;5025639;28;20037;-80
2021/08/27 09:21:45;;;;;;;3.60;0.80;;;19.90;99.90;;;;;;5046111;28;20095;-78
2021/08/27 09:24:19;;;;;;;5.78;0.90;;;19.90;99.90;;;;;;5064408;28;20131;-77
2021/08/27 09:26:57;;;;;;;5.05;0.77;;;19.80;99.90;;;;;;5064874;28;20032;-83
2021/08/27 09:29:34;;;;;;;3.45;0.52;;;19.90;99.90;;;;;;5048059;28;20040;-80
2021/08/27 09:32:16;;;;;;;4.80;1.45;;;20.00;99.70;;;;;;5032735;28;20035;-79
2021/08/27 09:34:43;;;;;;;4.03;0.90;;;20.00;99.20;;;;;;5002826;28;20068;-80
2021/08/27 09:37:12;;;;;;;3.90;1.27;;;20.10;99.30;;;;;;5016867;28;20041;-79
2021/08/27 09:39:39;;;;;;;2.75;0.70;;;20.20;99.40;;;;;;5073577;28;20052;-80
2021/08/27 09:42:06;;;;;;;4.53;0.70;;;20.10;98.80;;;;;;5036908;28;20055;-79
2021/08/27 09:44:32;;;;;;;5.40;0.80;;;20.10;99.20;;;;;;5018254;28;20809;-80
2021/08/27 09:47:06;;;;;;;6.35;1.00;;;20.10;99.50;;;;;;5053437;28;20040;-78
2021/08/27 09:49:37;;;;;;;7.25;1.63;;;20.10;99.50;;;;;;5067193;28;20036;-79
2021/08/27 09:52:09;;;;;;;7.03;1.48;;;20.00;99.20;;;;;;5068280;28;20032;-80
2021/08/27 09:54:38;;;;;;;3.95;0.70;;;19.90;99.60;;;;;;5051498;28;20044;-79
2021/08/27 09:57:14;;;;;;;3.85;0.60;;;20.10;99.60;;;;;;5036826;28;20040;-79
2021/08/27 09:59:47;;;;;;;5.68;0.60;;;20.40;99.40;;;;;;5052171;28;20518;-79
2021/08/27 10:02:15;;;;;;;4.88;0.60;;;20.60;98.60;;;;;;5070183;28;20035;-80
2021/08/27 10:04:57;;;;;;;4.35;0.75;;;20.90;98.00;;;;;;5057164;28;20036;-79
2021/08/27 10:07:29;;;;;;;3.17;0.50;;;20.90;98.20;;;;;;5038968;28;20032;-79
2021/08/27 10:09:58;;;;;;;6.28;1.00;;;20.90;97.50;;;;;;5036297;28;20044;-79
2021/08/27 10:12:34;;;;;;;3.85;0.85;;;20.80;97.50;;;;;;5067425;28;20046;-80
2021/08/27 10:15:02;;;;;;;4.65;1.42;;;20.80;97.20;;;;;;5034956;28;20041;-79
2021/08/27 10:17:28;;;;;;;3.10;0.60;;;20.80;97.60;;;;;;5065619;28;20042;-80
2021/08/27 10:19:55;;;;;;;1.15;0.30;;;20.30;99.40;;;;;;5065599;28;20051;-79
2021/08/27 10:22:22;;;;;;;3.13;0.40;;;19.40;99.90;;;;;;5051403;28;20040;-78
2021/08/27 10:24:49;;;;;;;2.67;0.45;;;18.70;99.90;;;;;;5067858;28;20044;-79
2021/08/27 10:27:16;;;;;;;2.85;0.40;;;18.20;99.90;;;;;;5049634;28;20403;-77
2021/08/27 10:29:52;;;;;;;3.55;0.63;;;17.90;99.90;;;;;;5032284;28;20059;-78
2021/08/27 10:32:38;;;;;;;3.38;0.60;;;17.70;99.90;;;;;;5065501;28;20031;-78
2021/08/27 10:35:09;;;;;;;5.18;0.40;;;17.60;99.90;;;;;;5066857;28;20393;-77
2021/08/27 10:37:50;;;;;;;4.20;0.75;;;17.60;99.90;;;;;;5067024;28;20032;-78
2021/08/27 10:40:22;;;;;;;2.45;0.50;;;17.70;99.90;;;;;;5050528;28;20063;-78
2021/08/27 10:42:52;;;;;;;5.32;0.65;;;18.00;99.90;;;;;;5085362;28;20387;-79
2021/08/27 10:45:44;;;;;;;4.03;0.65;;;18.50;99.90;;;;;;5085274;28;20047;-79
2021/08/27 10:48:15;;;;;;;;;;;19.00;99.90;;;;;;5066233;28;20047;-79
2021/08/27 10:50:49;;;;;;;2.10;0.60;;;19.50;99.90;;;;;;5051141;28;19912;-79
2021/08/27 10:53:33;;;;;;;2.25;0.60;;;19.60;99.90;;;;;;5051395;28;20094;-80
2021/08/27 10:56:05;;;;;;;5.32;0.70;;;19.80;99.90;;;;;;5052206;28;20052;-80
2021/08/27 10:58:46;;;;;;;2.83;0.88;;;20.20;99.90;;;;;;5066376;28;20048;-80
2021/08/27 11:01:33;;;;;;;3.15;0.73;;;20.60;99.90;;;;;;5069168;28;20055;-80
2021/08/27 11:04:03;;;;;;;6.15;0.88;;;21.20;99.90;;;;;;5051703;28;20043;-80
2021/08/27 11:06:47;;;;;;;5.15;0.70;;;21.60;99.90;;;;;;5050003;28;20044;-80
2021/08/27 11:09:15;;;;;;;2.85;0.60;;;21.80;99.90;;;;;;5049069;28;20048;-79
2021/08/27 11:11:41;;;;;;;2.75;0.60;;;22.00;99.90;;;;;;5084727;28;20051;-79
2021/08/27 11:14:19;;;;;;;2.40;0.40;;;22.30;99.90;;;;;;5066937;28;20020;-78
2021/08/27 11:16:57;;;;;;;2.65;0.52;;;22.70;99.90;;;;;;5052838;28;20040;-80
2021/08/27 11:19:35;;;;;;;4.20;1.05;;;23.10;99.90;;;;;;5065994;28;20040;-78
2021/08/27 11:22:11;;;;;;;1.88;0.50;;;23.40;99.80;;;;;;5066223;28;20051;-78
2021/08/27 11:24:39;;;;;;;3.05;0.50;;;23.60;98.10;;;;;;5065449;28;20046;-78
2021/08/27 11:27:08;;;;;;;2.40;0.60;;;23.60;97.50;;;;;;5064263;28;20474;-78
2021/08/27 11:29:39;;;;;;;2.35;0.40;;;23.50;97.50;;;;;;5081040;28;20032;-77
2021/08/27 11:32:10;;;;;;;4.80;0.60;;;23.50;97.40;;;;;;5065409;28;20020;-77
2021/08/27 11:35:00;;;;;;;4.57;0.85;;;23.30;96.30;;;;;;5066902;28;20032;-78
2021/08/27 11:37:32;;;;;;;4.60;0.80;;;22.80;95.90;;;;;;5087628;28;20031;-81
2021/08/27 11:40:01;;;;;;;4.20;0.77;;;22.40;96.00;;;;;;5084646;28;20056;-80
2021/08/27 11:42:28;;;;;;;3.60;0.60;;;22.00;96.60;;;;;;5050658;28;20041;-80
2021/08/27 11:45:09;;;;;;;4.55;0.70;;;22.20;97.50;;;;;;5037392;28;20056;-80
2021/08/27 11:47:45;;;;;;;5.35;0.80;;;22.80;96.90;;;;;;5064110;28;20048;-80
2021/08/27 11:50:42;;;;;;;4.95;0.60;;;23.60;94.90;;;;;;5067007;28;20047;-81
2021/08/27 11:53:11;;;;;;;3.22;0.80;;;23.90;93.60;;;;;;5035977;28;20377;-81
2021/08/27 11:55:43;;;;;;;5.45;0.88;;;24.10;92.50;;;;;;5034107;28;20565;-80
2021/08/27 11:58:10;;;;;;;5.90;0.70;;;24.00;91.90;;;;;;5065367;28;20917;-80
2021/08/27 12:00:39;;;;;;;18.08;11.10;;;23.70;92.10;;;;;;5084380;28;20032;-82
2021/08/27 12:03:08;;;;;;;8.90;4.68;;;23.60;92.80;;;;;;5033412;28;20044;-81
2021/08/27 12:05:41;;;;;;;8.65;5.07;;;23.40;93.20;;;;;;5065750;28;20047;-81
2021/08/27 12:08:15;;;;;;;8.73;1.25;;;23.50;93.40;;;;;;5066044;28;20051;-82
2021/08/27 12:10:46;;;;;;;4.70;1.00;;;23.90;93.20;;;;;;5032698;28;20403;-82
2021/08/27 12:13:15;;;;;;;5.10;1.05;;;24.70;92.60;;;;;;5038257;28;20047;-81
2021/08/27 12:15:45;;;;;;;2.40;0.63;;;25.00;91.10;;;;;;5032034;28;20041;-81
2021/08/27 12:18:15;;;;;;;4.40;0.70;;;25.00;91.00;;;;;;5044987;28;20398;-82
2021/08/27 12:20:48;;;;;;;4.45;1.10;;;25.20;90.40;;;;;;5063772;28;20036;-82
2021/08/27 12:23:19;;;;;;;4.22;1.10;;;25.60;88.20;;;;;;5047906;28;20039;-82
2021/08/27 12:26:08;;;;;;;5.72;1.10;;;26.00;86.80;;;;;;5064662;28;20040;-81
2021/08/27 12:28:41;;;;;;;4.05;1.08;;;26.00;85.60;;;;;;5046082;28;20036;-82
2021/08/27 12:31:08;;;;;;;5.93;1.02;;;25.90;84.60;;;;;;5048840;28;20028;-83
2021/08/27 12:33:39;;;;;;;6.65;1.08;;;26.10;84.30;;;;;;5047890;28;20051;-82
2021/08/27 12:36:11;;;;;;;5.40;1.10;;;26.40;83.20;;;;;;5064735;28;20039;-82
2021/08/27 12:38:39;;;;;;;2.90;0.80;;;26.30;81.50;;;;;;5046093;28;20051;-82
2021/08/27 12:41:18;;;;;;;3.58;0.90;;;25.80;82.80;;;;;;5031277;28;20063;-81
2021/08/27 12:43:45;;;;;;;2.97;0.75;;;25.10;84.10;;;;;;5032715;28;20044;-81
2021/08/27 12:46:27;;;;;;;5.32;0.93;;;24.30;86.10;;;;;;5047062;28;20040;-81
2021/08/27 12:49:15;;;;;;;4.05;0.82;;;24.50;87.00;;;;;;5046244;28;20125;-81
2021/08/27 12:51:46;;;;;;;2.85;0.80;;;25.40;85.30;;;;;;5046765;28;20028;-82
2021/08/27 12:54:14;;;;;;;3.15;1.08;;;26.40;83.30;;;;;;5063486;28;20099;-81
2021/08/27 12:56:59;;;;;;;5.00;0.80;;;27.10;81.20;;;;;;5034363;28;20040;-82
2021/08/27 12:59:25;;;;;;;3.35;0.90;;;27.50;77.60;;;;;;5067510;28;20593;-82
2021/08/27 13:01:54;;;;;;;3.60;0.82;;;27.90;76.00;;;;;;5068728;28;20048;-81
2021/08/27 13:04:39;;;;;;;4.88;0.90;;;28.50;73.20;;;;;;5086129;28;20029;-83
2021/08/27 13:07:19;;;;;;;2.55;0.90;;;28.90;70.60;;;;;;5069382;28;20043;-81